This is the latest recevied weather packets stored in our database for station/object OM8AKX-4. If no packets are shown the sender has not sent any weather packets the latest 10 day(s).
| Time | Temp. | Humidity | Pressure | Rain* | Wind** | Luminosity | Snow |
|---|---|---|---|---|---|---|---|
| 1777351671 | 2.78° C | 52% | 878.6 hPa | - | - | - | - |
| 1777350771 | 2.78° C | 53% | 878.4 hPa | - | - | - | - |
| 1777349871 | 2.78° C | 52% | 878.4 hPa | - | - | - | - |
| 1777348971 | 3.89° C | 51% | 878.3 hPa | - | - | - | - |
| 1777348071 | 1.11° C | 57% | 878.3 hPa | - | - | - | - |
| 1777347170 | 1.67° C | 58% | 878.3 hPa | - | - | - | - |
| 1777346270 | 0.56° C | 61% | 878.3 hPa | - | - | - | - |
| 1777345370 | 0.56° C | 61% | 878.3 hPa | - | - | - | - |
| 1777344470 | 0° C | 62% | 878.3 hPa | - | - | - | - |
| 1777343570 | 0° C | 62% | 878.3 hPa | - | - | - | - |
| 1777342670 | 0° C | 62% | 878.4 hPa | - | - | - | - |
| 1777341770 | 0° C | 62% | 878.5 hPa | - | - | - | - |
| 1777340870 | 0° C | 62% | 878.6 hPa | - | - | - | - |
| 1777339970 | 0° C | 62% | 878.7 hPa | - | - | - | - |
| 1777339070 | -0.56° C | 62% | 878.8 hPa | - | - | - | - |
| 1777338170 | -0.56° C | 61% | 878.8 hPa | - | - | - | - |
| 1777337270 | 0° C | 60% | 878.7 hPa | - | - | - | - |
| 1777336370 | 0° C | 60% | 878.8 hPa | - | - | - | - |
| 1777335469 | 0° C | 58% | 878.9 hPa | - | - | - | - |
| 1777334569 | 0° C | 57% | 878.8 hPa | - | - | - | - |
| 1777333672 | 0° C | 55% | 878.9 hPa | - | - | - | - |
| 1777332772 | 0.56° C | 53% | 878.9 hPa | - | - | - | - |
| 1777331872 | 0.56° C | 51% | 879 hPa | - | - | - | - |
| 1777330972 | 0.56° C | 51% | 879.1 hPa | - | - | - | - |
| 1777330072 | 0.56° C | 50% | 879.1 hPa | - | - | - | - |
* Rain since midnight (hover to see other rain measurements)
** Current wind speed in m/s (hover to see current wind gust speed)